createdAt,value
2018-10-01T00:01:23.260Z,10.47
2018-10-01T00:03:59.115Z,10.65
2018-10-01T00:06:35.532Z,10.70
2018-10-01T00:09:11.329Z,10.49
2018-10-01T00:11:47.351Z,10.46
2018-10-01T00:14:23.130Z,10.57
2018-10-01T00:16:59.046Z,10.58
2018-10-01T00:19:39.939Z,10.48
2018-10-01T00:22:20.812Z,10.42
2018-10-01T00:24:56.902Z,10.37
2018-10-01T00:27:33.015Z,10.32
2018-10-01T00:30:08.853Z,10.44
2018-10-01T00:32:44.836Z,10.28
2018-10-01T00:35:20.765Z,10.41
2018-10-01T00:37:56.580Z,10.39
2018-10-01T00:40:32.405Z,10.62
2018-10-01T00:43:08.281Z,10.53
2018-10-01T00:45:44.181Z,10.63
2018-10-01T00:48:20.021Z,10.65
2018-10-01T00:50:56.057Z,10.73
2018-10-01T00:53:31.967Z,10.51
2018-10-01T00:56:07.745Z,10.46
2018-10-01T00:58:43.761Z,10.62
2018-10-01T01:01:19.688Z,10.69
2018-10-01T01:03:55.632Z,10.57
2018-10-01T01:06:31.543Z,10.40
2018-10-01T01:09:08.413Z,10.45
2018-10-01T01:11:44.345Z,10.48
2018-10-01T01:14:20.368Z,10.30
2018-10-01T01:16:56.037Z,10.25
2018-10-01T01:19:31.863Z,10.34
2018-10-01T01:22:07.162Z,10.23
2018-10-01T01:24:43.050Z,10.42
2018-10-01T01:27:18.972Z,10.47
2018-10-01T01:29:54.857Z,10.37
2018-10-01T01:32:30.716Z,10.27
2018-10-01T01:35:06.647Z,10.31
2018-10-01T01:37:42.465Z,10.49
2018-10-01T01:40:18.289Z,10.45
2018-10-01T01:42:54.097Z,10.58
2018-10-01T01:45:30.005Z,10.66
2018-10-01T01:48:06.001Z,10.65
2018-10-01T01:50:41.856Z,10.50
2018-10-01T01:53:17.681Z,10.79
2018-10-01T01:55:53.536Z,10.77
2018-10-01T01:58:29.400Z,10.67
2018-10-01T02:01:05.329Z,10.37
2018-10-01T02:03:41.407Z,10.46
2018-10-01T02:06:17.220Z,10.43
2018-10-01T02:08:53.184Z,10.50
2018-10-01T02:11:29.020Z,10.51
2018-10-01T02:14:05.212Z,10.54
2018-10-01T02:16:41.154Z,10.59
2018-10-01T02:19:17.173Z,10.40
2018-10-01T02:21:53.015Z,10.43
2018-10-01T02:24:28.856Z,10.26
2018-10-01T02:27:04.663Z,10.56
2018-10-01T02:29:40.564Z,10.67
2018-10-01T02:32:16.416Z,10.65
2018-10-01T02:34:52.286Z,10.60
2018-10-01T02:37:28.141Z,10.68
2018-10-01T02:40:04.071Z,10.56
2018-10-01T02:42:40.028Z,10.41
2018-10-01T02:45:15.830Z,10.57
2018-10-01T02:47:51.825Z,10.42
2018-10-01T02:50:27.776Z,10.54
2018-10-01T02:55:14.058Z,10.73
2018-10-01T02:57:50.006Z,10.70
2018-10-01T03:00:25.965Z,10.65
2018-10-01T03:03:01.796Z,10.68
2018-10-01T03:05:38.051Z,10.72
2018-10-01T03:08:13.820Z,10.75
2018-10-01T03:10:49.967Z,10.79
2018-10-01T03:13:25.976Z,10.89
2018-10-01T03:16:01.941Z,10.68
2018-10-01T03:18:37.775Z,10.72
2018-10-01T03:21:13.749Z,10.60
2018-10-01T03:23:49.692Z,10.69
2018-10-01T03:26:25.914Z,10.77
2018-10-01T03:29:01.730Z,10.83
2018-10-01T03:31:37.580Z,10.84
2018-10-01T03:34:13.900Z,10.86
2018-10-01T03:36:49.869Z,10.83
2018-10-01T03:39:25.808Z,10.87
2018-10-01T03:42:01.672Z,10.93
2018-10-01T03:44:37.493Z,10.94
2018-10-01T03:47:13.455Z,10.86
2018-10-01T03:49:49.320Z,10.93
2018-10-01T03:52:25.276Z,10.94
2018-10-01T03:55:01.109Z,11.06
2018-10-01T03:57:36.940Z,11.13
2018-10-01T04:00:12.784Z,11.22
2018-10-01T04:02:48.635Z,11.29
2018-10-01T04:05:24.757Z,11.17
2018-10-01T04:08:00.744Z,11.14
2018-10-01T04:10:36.533Z,11.12
2018-10-01T04:13:12.580Z,11.06
2018-10-01T04:15:48.525Z,11.05
2018-10-01T04:18:24.392Z,11.01
2018-10-01T04:21:00.182Z,10.82
2018-10-01T04:23:36.141Z,10.85
2018-10-01T04:26:11.944Z,10.97
2018-10-01T04:28:47.939Z,11.01
2018-10-01T04:31:23.743Z,10.95
2018-10-01T04:33:59.600Z,10.90
2018-10-01T04:36:35.364Z,10.91
2018-10-01T04:39:13.996Z,10.93
2018-10-01T04:41:49.912Z,10.90
2018-10-01T04:44:25.887Z,10.96
2018-10-01T04:47:01.682Z,11.02
2018-10-01T04:49:37.556Z,11.09
2018-10-01T04:52:13.473Z,11.22
2018-10-01T04:54:49.484Z,11.22
2018-10-01T04:57:25.423Z,11.24
2018-10-01T05:00:01.672Z,11.17
2018-10-01T05:02:37.694Z,11.30
2018-10-01T05:05:14.555Z,11.41
2018-10-01T05:07:50.917Z,11.34
2018-10-01T05:10:26.821Z,11.29
2018-10-01T05:13:02.597Z,11.33
2018-10-01T05:15:38.710Z,11.32
2018-10-01T05:18:14.692Z,11.25
2018-10-01T05:20:50.551Z,11.28
2018-10-01T05:23:26.375Z,11.34
2018-10-01T05:26:02.321Z,11.39
2018-10-01T05:28:38.364Z,11.37
2018-10-01T05:31:14.230Z,11.30
2018-10-01T05:33:50.046Z,11.44
2018-10-01T05:36:25.982Z,11.47
2018-10-01T05:39:01.759Z,11.49
2018-10-01T05:41:37.890Z,11.53
2018-10-01T05:44:13.656Z,11.51
2018-10-01T05:46:49.993Z,11.55
2018-10-01T05:49:25.897Z,11.55
2018-10-01T05:52:01.775Z,11.59
2018-10-01T05:56:01.936Z,11.54
2018-10-01T05:58:37.780Z,11.62
2018-10-01T06:01:13.591Z,11.52
2018-10-01T06:03:49.564Z,11.65
2018-10-01T06:06:25.369Z,11.75
2018-10-01T06:09:01.209Z,11.77
2018-10-01T06:11:37.097Z,11.88
2018-10-01T06:14:16.442Z,11.94
2018-10-01T06:16:52.758Z,11.99
2018-10-01T06:19:28.597Z,12.04
2018-10-01T06:21:59.453Z,12.05
2018-10-01T06:24:30.334Z,12.14
2018-10-01T06:27:01.191Z,12.21
2018-10-01T06:29:32.621Z,12.27
2018-10-01T06:32:03.464Z,12.31
2018-10-01T06:34:34.353Z,12.27
2018-10-01T06:37:05.213Z,12.35
2018-10-01T06:39:36.110Z,12.50
2018-10-01T06:42:07.071Z,12.57
2018-10-01T06:44:38.230Z,12.61
2018-10-01T06:47:09.067Z,12.66
2018-10-01T06:49:39.965Z,12.75
2018-10-01T06:52:10.800Z,12.86
2018-10-01T06:54:41.705Z,12.93
2018-10-01T06:57:12.615Z,12.92
2018-10-01T06:59:43.567Z,12.73
2018-10-01T07:02:14.669Z,12.82
2018-10-01T07:04:45.540Z,12.89
2018-10-01T07:07:16.609Z,12.81
2018-10-01T07:09:47.579Z,12.78
2018-10-01T07:12:18.502Z,12.82
2018-10-01T07:14:49.461Z,12.74
2018-10-01T07:17:20.553Z,12.76
2018-10-01T07:19:51.701Z,12.75
2018-10-01T07:22:22.590Z,12.70
2018-10-01T07:24:53.500Z,12.60
2018-10-01T07:27:24.342Z,12.67
2018-10-01T07:29:55.757Z,12.74
2018-10-01T07:32:26.592Z,12.77
2018-10-01T07:35:02.345Z,12.89
2018-10-01T07:37:33.171Z,12.86
2018-10-01T07:40:07.009Z,12.57
2018-10-01T07:42:37.876Z,12.66
2018-10-01T07:45:08.880Z,12.73
2018-10-01T07:47:39.914Z,12.80
2018-10-01T07:50:10.804Z,12.41
2018-10-01T07:52:41.680Z,12.46
2018-10-01T07:55:12.549Z,12.46
2018-10-01T07:57:43.369Z,12.35
2018-10-01T08:00:14.412Z,12.52
2018-10-01T08:02:45.260Z,12.69
2018-10-01T08:05:16.609Z,12.85
2018-10-01T08:07:47.468Z,12.97
2018-10-01T08:10:18.392Z,13.03
2018-10-01T08:12:49.224Z,13.11
2018-10-01T08:15:20.299Z,13.14
2018-10-01T08:17:51.713Z,13.11
2018-10-01T08:20:22.659Z,13.16
2018-10-01T08:22:53.675Z,13.21
2018-10-01T08:25:24.616Z,13.28
2018-10-01T08:27:55.852Z,13.33
2018-10-01T08:30:26.771Z,13.49
2018-10-01T08:32:57.593Z,13.62
2018-10-01T08:35:28.505Z,13.71
2018-10-01T08:37:59.362Z,13.98
2018-10-01T08:40:30.479Z,14.08
2018-10-01T08:43:04.299Z,14.21
2018-10-01T08:45:35.204Z,14.43
2018-10-01T08:48:06.152Z,14.65
2018-10-01T08:50:44.302Z,14.79
2018-10-01T08:53:21.973Z,15.03
2018-10-01T08:55:53.395Z,14.98
2018-10-01T08:58:24.224Z,15.11
2018-10-01T09:00:55.178Z,15.18
2018-10-01T09:03:26.015Z,15.25
2018-10-01T09:05:57.161Z,15.38
2018-10-01T09:08:28.087Z,15.57
2018-10-01T09:10:59.317Z,15.69
2018-10-01T09:13:30.360Z,15.16
2018-10-01T09:16:04.306Z,15.25
2018-10-01T09:18:37.710Z,15.18
2018-10-01T09:21:09.548Z,15.28
2018-10-01T09:23:40.638Z,15.47
2018-10-01T09:26:12.086Z,15.67
2018-10-01T09:28:45.938Z,15.72
2018-10-01T09:31:16.875Z,15.72
2018-10-01T09:33:47.725Z,15.70
2018-10-01T09:36:18.760Z,15.77
2018-10-01T09:38:49.655Z,15.90
2018-10-01T09:44:15.013Z,15.59
2018-10-01T09:46:46.470Z,15.76
2018-10-01T09:49:17.311Z,15.66
2018-10-01T09:51:48.196Z,15.69
2018-10-01T09:54:19.160Z,15.68
2018-10-01T09:56:50.033Z,15.56
2018-10-01T09:59:20.883Z,15.73
2018-10-01T10:01:52.008Z,15.76
2018-10-01T10:04:23.031Z,15.89
2018-10-01T10:06:54.047Z,15.98
2018-10-01T10:09:24.908Z,15.90
2018-10-01T10:11:55.821Z,15.45
2018-10-01T10:14:26.773Z,15.53
2018-10-01T10:16:58.633Z,15.65
2018-10-01T10:19:30.008Z,15.89
2018-10-01T10:22:01.203Z,15.83
2018-10-01T10:24:32.044Z,16.11
2018-10-01T10:27:03.143Z,16.28
2018-10-01T10:29:37.050Z,16.40
2018-10-01T10:32:08.080Z,16.49
2018-10-01T10:34:39.187Z,16.68
2018-10-01T10:37:10.278Z,17.01
2018-10-01T10:39:41.196Z,17.12
2018-10-01T10:42:13.072Z,16.91
2018-10-01T10:44:43.986Z,17.13
2018-10-01T10:47:17.116Z,16.87
2018-10-01T10:49:48.305Z,17.30
2018-10-01T10:52:19.297Z,17.67
2018-10-01T10:54:53.562Z,17.90
2018-10-01T10:57:24.454Z,17.44
2018-10-01T10:59:55.293Z,17.86
2018-10-01T11:02:26.306Z,18.11
2018-10-01T11:04:57.376Z,18.61
2018-10-01T11:07:28.275Z,18.84
2018-10-01T11:09:59.092Z,18.55
2018-10-01T11:12:30.005Z,18.93
2018-10-01T11:15:01.162Z,19.46
2018-10-01T11:17:32.231Z,18.73
2018-10-01T11:20:03.473Z,18.95
2018-10-01T11:22:34.635Z,19.48
2018-10-01T11:25:05.587Z,20.07
2018-10-01T11:27:36.467Z,20.14
2018-10-01T11:30:07.846Z,20.51
2018-10-01T11:32:41.832Z,20.77
2018-10-01T11:35:12.755Z,20.44
2018-10-01T11:37:43.826Z,20.24
2018-10-01T11:40:14.664Z,20.62
2018-10-01T11:42:45.565Z,20.24
2018-10-01T11:45:16.499Z,20.25
2018-10-01T11:47:47.729Z,20.28
2018-10-01T11:50:19.976Z,20.12
2018-10-01T11:52:50.871Z,20.15
2018-10-01T11:55:21.713Z,20.31
2018-10-01T11:57:52.601Z,20.04
2018-10-01T12:00:23.851Z,19.58
2018-10-01T12:02:54.924Z,19.84
2018-10-01T12:05:25.934Z,20.35
2018-10-01T12:07:56.828Z,20.73
2018-10-01T12:10:27.709Z,21.10
2018-10-01T12:12:58.778Z,21.39
2018-10-01T12:15:29.687Z,20.93
2018-10-01T12:18:01.163Z,21.12
2018-10-01T12:20:32.115Z,21.67
2018-10-01T12:23:03.000Z,21.96
2018-10-01T12:25:33.841Z,21.86
2018-10-01T12:28:04.778Z,21.33
2018-10-01T12:30:35.616Z,21.00
2018-10-01T12:33:06.563Z,20.51
2018-10-01T12:35:38.961Z,20.40
2018-10-01T12:38:09.831Z,21.32
2018-10-01T12:40:40.843Z,20.65
2018-10-01T12:43:15.837Z,21.15
2018-10-01T12:45:48.682Z,21.94
2018-10-01T12:48:19.951Z,22.29
2018-10-01T12:50:50.836Z,22.91
2018-10-01T12:53:21.760Z,21.53
2018-10-01T12:55:52.591Z,21.39
2018-10-01T12:58:24.131Z,22.62
2018-10-01T13:00:54.946Z,22.62
2018-10-01T13:03:25.892Z,22.16
2018-10-01T13:05:56.980Z,22.79
2018-10-01T13:08:27.918Z,21.95
2018-10-01T13:10:58.782Z,22.66
2018-10-01T13:13:29.657Z,23.47
2018-10-01T13:16:00.497Z,24.34
2018-10-01T13:18:31.504Z,23.91
2018-10-01T13:21:02.663Z,23.53
2018-10-01T13:23:33.564Z,23.92
2018-10-01T13:26:04.924Z,23.56
2018-10-01T13:28:35.851Z,23.02
2018-10-01T13:31:09.089Z,22.97
2018-10-01T13:33:40.701Z,22.88
2018-10-01T13:36:14.534Z,22.73
2018-10-01T13:38:45.659Z,22.34
2018-10-01T13:41:16.529Z,22.19
2018-10-01T13:43:47.420Z,21.63
2018-10-01T13:46:18.245Z,21.55
2018-10-01T13:48:49.213Z,21.57
2018-10-01T13:51:20.284Z,21.98
2018-10-01T13:53:51.181Z,22.10
2018-10-01T13:56:22.055Z,23.57
2018-10-01T13:58:52.930Z,25.18
2018-10-01T14:01:23.943Z,25.91
2018-10-01T14:03:54.957Z,26.69
2018-10-01T14:06:26.314Z,27.48
2018-10-01T14:08:57.476Z,27.73
2018-10-01T14:11:28.308Z,28.17
2018-10-01T14:13:59.317Z,28.63
2018-10-01T14:16:30.293Z,26.98
2018-10-01T14:19:01.249Z,27.81
2018-10-01T14:21:32.413Z,28.13
2018-10-01T14:24:03.312Z,28.22
2018-10-01T14:26:34.153Z,29.41
2018-10-01T14:29:05.116Z,29.05
2018-10-01T14:31:35.974Z,28.55
2018-10-01T14:34:06.948Z,24.97
2018-10-01T14:36:37.847Z,23.11
2018-10-01T14:39:09.373Z,23.34
2018-10-01T14:44:09.748Z,22.65
2018-10-01T14:46:40.649Z,22.46
2018-10-01T14:49:11.497Z,22.34
2018-10-01T14:51:42.408Z,22.17
2018-10-01T14:54:13.311Z,22.12
2018-10-01T14:56:44.616Z,21.86
2018-10-01T14:59:16.417Z,21.46
2018-10-01T15:01:47.302Z,21.21
2018-10-01T15:04:18.155Z,20.99
2018-10-01T15:06:49.158Z,20.70
2018-10-01T15:09:20.031Z,20.13
2018-10-01T15:11:50.994Z,19.64
2018-10-01T15:14:21.835Z,19.52
2018-10-01T15:16:52.733Z,19.29
2018-10-01T15:19:23.565Z,19.03
2018-10-01T15:21:54.634Z,18.76
2018-10-01T15:24:25.532Z,18.34
2018-10-01T15:26:56.649Z,17.93
2018-10-01T15:29:27.521Z,17.73
2018-10-01T15:31:58.475Z,17.45
2018-10-01T15:34:29.340Z,17.01
2018-10-01T15:37:00.287Z,16.78
2018-10-01T15:39:31.145Z,16.61
2018-10-01T15:42:02.569Z,16.43
2018-10-01T15:44:33.604Z,16.29
2018-10-01T15:47:04.562Z,16.14
2018-10-01T15:49:35.447Z,15.95
2018-10-01T15:52:06.503Z,15.99
2018-10-01T15:54:37.369Z,15.99
2018-10-01T15:57:08.289Z,15.78
2018-10-01T15:59:39.286Z,15.80
2018-10-01T16:02:11.843Z,15.81
2018-10-01T16:04:43.061Z,15.74
2018-10-01T16:07:14.058Z,15.78
2018-10-01T16:09:44.936Z,15.65
2018-10-01T16:12:15.826Z,15.50
2018-10-01T16:14:46.696Z,15.39
2018-10-01T16:17:18.023Z,15.33
2018-10-01T16:19:48.880Z,15.27
2018-10-01T16:22:19.952Z,15.10
2018-10-01T16:24:50.824Z,14.92
2018-10-01T16:27:21.919Z,14.61
2018-10-01T16:29:54.241Z,14.39
2018-10-01T16:32:25.326Z,14.16
2018-10-01T16:34:56.164Z,14.31
2018-10-01T16:37:27.296Z,14.29
2018-10-01T16:39:58.157Z,14.29
2018-10-01T16:42:29.070Z,14.37
2018-10-01T16:45:00.480Z,14.36
2018-10-01T16:47:31.836Z,14.20
2018-10-01T16:50:02.830Z,14.10
2018-10-01T16:53:58.151Z,14.00
2018-10-01T16:56:29.096Z,13.39
2018-10-01T16:59:00.004Z,13.16
2018-10-01T17:01:30.877Z,13.13
2018-10-01T17:04:01.781Z,13.34
2018-10-01T17:06:33.956Z,13.40
2018-10-01T17:09:07.357Z,13.24
2018-10-01T17:11:38.261Z,13.01
2018-10-01T17:14:09.590Z,13.01
2018-10-01T17:16:40.488Z,13.17
2018-10-01T17:19:11.415Z,13.43
2018-10-01T17:21:42.288Z,13.50
2018-10-01T17:24:13.334Z,13.52
2018-10-01T17:26:44.219Z,13.19
2018-10-01T17:29:15.108Z,12.69
2018-10-01T17:31:46.019Z,12.46
2018-10-01T17:34:17.101Z,12.37
2018-10-01T17:36:48.031Z,12.38
2018-10-01T17:39:19.030Z,12.52
2018-10-01T17:41:49.999Z,12.56
2018-10-01T17:44:24.424Z,12.51
2018-10-01T17:46:55.528Z,12.26
2018-10-01T17:50:51.429Z,12.33
2018-10-01T17:53:23.094Z,12.40
2018-10-01T17:56:01.963Z,12.20
2018-10-01T17:58:33.682Z,12.34
2018-10-01T18:01:04.915Z,12.04
2018-10-01T18:03:38.000Z,12.33
2018-10-01T18:06:09.266Z,12.42
2018-10-01T18:08:40.141Z,12.39
2018-10-01T18:11:11.298Z,12.23
2018-10-01T18:13:42.200Z,12.11
2018-10-01T18:16:13.110Z,12.04
2018-10-01T18:18:45.095Z,12.03
2018-10-01T18:21:16.043Z,12.05
2018-10-01T18:23:47.317Z,12.01
2018-10-01T18:26:18.467Z,11.93
2018-10-01T18:28:49.386Z,12.01
2018-10-01T18:31:20.421Z,11.89
2018-10-01T18:34:05.254Z,11.85
2018-10-01T18:36:44.261Z,11.83
2018-10-01T18:39:18.868Z,11.74
2018-10-01T18:41:50.305Z,11.79
2018-10-01T18:44:21.747Z,11.48
2018-10-01T18:46:52.769Z,11.46
2018-10-01T18:49:24.188Z,11.30
2018-10-01T18:51:56.620Z,11.43
2018-10-01T18:54:28.339Z,11.54
2018-10-01T18:56:59.406Z,11.48
2018-10-01T18:59:30.464Z,11.52
2018-10-01T19:02:01.695Z,11.11
2018-10-01T19:04:42.029Z,10.89
2018-10-01T19:07:26.126Z,10.42
2018-10-01T19:10:03.363Z,10.53
2018-10-01T19:12:41.561Z,10.68
2018-10-01T19:15:12.932Z,10.64
2018-10-01T19:17:44.166Z,10.68
2018-10-01T19:20:15.563Z,10.79
2018-10-01T19:22:46.606Z,10.97
2018-10-01T19:25:17.554Z,10.58
2018-10-01T19:28:01.054Z,10.52
2018-10-01T19:30:33.879Z,10.66
2018-10-01T19:33:05.366Z,10.56
2018-10-01T19:35:36.452Z,10.49
2018-10-01T19:38:12.534Z,10.53
2018-10-01T19:40:43.486Z,10.61
2018-10-01T19:43:14.537Z,10.64
2018-10-01T19:45:45.732Z,10.60
2018-10-01T19:48:16.744Z,10.48
2018-10-01T19:50:47.660Z,10.27
2018-10-01T19:53:18.915Z,10.12
2018-10-01T19:55:49.927Z,10.09
2018-10-01T19:58:24.760Z,10.15
2018-10-01T20:01:01.447Z,9.96
2018-10-01T20:03:38.574Z,10.17
2018-10-01T20:06:15.254Z,10.27
2018-10-01T20:08:51.521Z,10.32
2018-10-01T20:11:28.021Z,10.46
2018-10-01T20:14:04.423Z,10.47
2018-10-01T20:16:40.294Z,10.40
2018-10-01T20:19:16.948Z,10.08
2018-10-01T20:21:54.634Z,9.93
2018-10-01T20:24:32.534Z,10.00
2018-10-01T20:27:08.701Z,10.04
2018-10-01T20:29:45.117Z,10.12
2018-10-01T20:32:21.239Z,10.13
2018-10-01T20:34:57.475Z,10.24
2018-10-01T20:37:33.544Z,10.24
2018-10-01T20:40:09.984Z,10.38
2018-10-01T20:42:45.885Z,10.37
2018-10-01T20:45:21.935Z,10.36
2018-10-01T20:47:57.991Z,9.99
2018-10-01T20:50:34.207Z,9.62
2018-10-01T20:53:10.242Z,9.72
2018-10-01T20:55:46.489Z,9.33
2018-10-01T20:58:22.790Z,9.40
2018-10-01T21:00:58.845Z,9.49
2018-10-01T21:03:34.666Z,9.52
2018-10-01T21:06:10.712Z,9.44
2018-10-01T21:08:46.470Z,9.42
2018-10-01T21:11:25.006Z,9.45
2018-10-01T21:14:00.975Z,9.65
2018-10-01T21:16:37.407Z,9.67
2018-10-01T21:19:13.282Z,9.13
2018-10-01T21:21:49.237Z,9.31
2018-10-01T21:24:25.289Z,8.68
2018-10-01T21:27:01.161Z,8.68
2018-10-01T21:29:36.983Z,8.68
2018-10-01T21:32:12.985Z,8.53
2018-10-01T21:34:49.018Z,8.56
2018-10-01T21:37:26.132Z,8.31
2018-10-01T21:40:18.577Z,8.56
2018-10-01T21:42:54.589Z,8.74
2018-10-01T21:45:30.476Z,8.28
2018-10-01T21:48:06.393Z,8.29
2018-10-01T21:50:43.016Z,8.35
2018-10-01T21:53:18.880Z,8.70
2018-10-01T21:55:54.918Z,8.38
2018-10-01T21:58:30.937Z,8.67
2018-10-01T22:01:12.371Z,8.86
2018-10-01T22:03:48.938Z,8.65
2018-10-01T22:06:24.771Z,8.54
2018-10-01T22:09:00.805Z,8.49
2018-10-01T22:11:36.690Z,8.51
2018-10-01T22:14:12.536Z,8.67
2018-10-01T22:16:48.352Z,8.70
2018-10-01T22:19:24.274Z,8.73
2018-10-01T22:22:00.688Z,8.75
2018-10-01T22:24:36.664Z,8.71
2018-10-01T22:27:12.884Z,8.77
2018-10-01T22:29:48.725Z,8.85
2018-10-01T22:32:24.665Z,8.95
2018-10-01T22:35:00.617Z,8.39
2018-10-01T22:37:36.577Z,8.19
2018-10-01T22:40:12.582Z,8.22
2018-10-01T22:42:48.383Z,7.92
2018-10-01T22:45:24.244Z,8.03
2018-10-01T22:48:00.045Z,8.14
2018-10-01T22:50:35.943Z,7.95
2018-10-01T22:53:11.752Z,8.05
2018-10-01T22:55:47.651Z,8.14
2018-10-01T22:58:23.479Z,8.05
2018-10-01T23:00:59.362Z,8.16
2018-10-01T23:03:35.185Z,7.74
2018-10-01T23:06:11.538Z,8.03
2018-10-01T23:08:48.680Z,7.63
2018-10-01T23:11:26.171Z,7.24
2018-10-01T23:14:02.093Z,7.18
2018-10-01T23:16:37.966Z,6.80
2018-10-01T23:19:13.815Z,6.72
2018-10-01T23:21:49.673Z,7.00
2018-10-01T23:24:26.633Z,7.38
2018-10-01T23:27:03.056Z,7.51
2018-10-01T23:29:40.167Z,7.21
2018-10-01T23:32:17.729Z,7.39
2018-10-01T23:34:55.053Z,7.09
2018-10-01T23:37:31.211Z,7.22
2018-10-01T23:40:07.959Z,7.56
2018-10-01T23:42:43.989Z,7.62
2018-10-01T23:45:19.908Z,7.69
2018-10-01T23:47:56.883Z,7.68
2018-10-01T23:50:32.959Z,7.85
2018-10-01T23:53:09.199Z,7.70
2018-10-01T23:55:45.355Z,6.88
2018-10-01T23:58:22.543Z,6.61
